sensor_id;sensor_type;location;lat;lon;timestamp;pressure;altitude;pressure_sealevel;temperature;humidity
12969;BME280;6549;53.128;8.182;2023-04-07T00:02:59;101328.13;;;7.29;100.00
12969;BME280;6549;53.128;8.182;2023-04-07T00:06:01;101319.47;;;7.27;100.00
12969;BME280;6549;53.128;8.182;2023-04-07T00:09:01;101333.94;;;7.28;100.00
12969;BME280;6549;53.128;8.182;2023-04-07T00:12:01;101323.09;;;7.31;100.00
12969;BME280;6549;53.128;8.182;2023-04-07T00:15:01;101325.50;;;7.33;100.00
12969;BME280;6549;53.128;8.182;2023-04-07T00:18:02;101325.84;;;7.31;100.00
12969;BME280;6549;53.128;8.182;2023-04-07T00:21:02;101328.38;;;7.24;100.00
12969;BME280;6549;53.128;8.182;2023-04-07T00:24:03;101322.47;;;7.22;100.00
12969;BME280;6549;53.128;8.182;2023-04-07T00:27:03;101319.53;;;7.15;100.00
12969;BME280;6549;53.128;8.182;2023-04-07T00:30:04;101322.09;;;7.08;100.00
12969;BME280;6549;53.128;8.182;2023-04-07T00:33:04;101323.13;;;7.03;100.00
12969;BME280;6549;53.128;8.182;2023-04-07T00:36:04;101319.03;;;6.97;100.00
12969;BME280;6549;53.128;8.182;2023-04-07T00:39:05;101320.00;;;6.89;100.00
12969;BME280;6549;53.128;8.182;2023-04-07T00:42:05;101316.69;;;6.84;100.00
12969;BME280;6549;53.128;8.182;2023-04-07T00:45:06;101318.78;;;6.74;100.00
12969;BME280;6549;53.128;8.182;2023-04-07T00:48:07;101319.25;;;6.64;100.00
12969;BME280;6549;53.128;8.182;2023-04-07T00:51:07;101316.78;;;6.59;100.00
12969;BME280;6549;53.128;8.182;2023-04-07T00:54:08;101311.31;;;6.59;100.00
12969;BME280;6549;53.128;8.182;2023-04-07T00:57:08;101316.31;;;6.57;100.00
12969;BME280;6549;53.128;8.182;2023-04-07T01:00:09;101314.50;;;6.49;100.00
12969;BME280;6549;53.128;8.182;2023-04-07T01:03:12;101312.00;;;6.44;100.00
12969;BME280;6549;53.128;8.182;2023-04-07T01:06:17;101316.34;;;6.45;100.00
12969;BME280;6549;53.128;8.182;2023-04-07T01:09:20;101309.50;;;6.39;100.00
12969;BME280;6549;53.128;8.182;2023-04-07T01:12:33;101310.22;;;6.36;100.00
12969;BME280;6549;53.128;8.182;2023-04-07T01:15:33;101310.44;;;6.31;100.00
12969;BME280;6549;53.128;8.182;2023-04-07T01:18:35;101311.91;;;6.28;100.00
12969;BME280;6549;53.128;8.182;2023-04-07T01:21:35;101311.47;;;6.26;100.00
12969;BME280;6549;53.128;8.182;2023-04-07T01:31:14;101305.69;;;6.28;100.00
12969;BME280;6549;53.128;8.182;2023-04-07T01:34:16;101308.84;;;6.30;100.00
12969;BME280;6549;53.128;8.182;2023-04-07T01:37:17;101314.31;;;6.30;100.00
12969;BME280;6549;53.128;8.182;2023-04-07T01:40:18;101315.09;;;6.30;100.00
12969;BME280;6549;53.128;8.182;2023-04-07T01:43:20;101320.88;;;6.29;100.00
12969;BME280;6549;53.128;8.182;2023-04-07T01:46:21;101319.31;;;6.28;100.00
12969;BME280;6549;53.128;8.182;2023-04-07T01:49:21;101311.81;;;6.25;100.00
12969;BME280;6549;53.128;8.182;2023-04-07T01:52:22;101308.50;;;6.31;100.00
12969;BME280;6549;53.128;8.182;2023-04-07T01:55:22;101317.50;;;6.32;100.00
12969;BME280;6549;53.128;8.182;2023-04-07T01:58:23;101317.63;;;6.23;100.00
12969;BME280;6549;53.128;8.182;2023-04-07T02:01:25;101311.00;;;6.24;100.00
12969;BME280;6549;53.128;8.182;2023-04-07T02:05:00;101315.44;;;6.29;100.00
12969;BME280;6549;53.128;8.182;2023-04-07T02:07:53;101318.75;;;6.22;100.00
12969;BME280;6549;53.128;8.182;2023-04-07T02:10:55;101314.53;;;6.13;100.00
12969;BME280;6549;53.128;8.182;2023-04-07T02:13:56;101312.50;;;6.10;100.00
12969;BME280;6549;53.128;8.182;2023-04-07T02:16:57;101320.59;;;6.06;100.00
12969;BME280;6549;53.128;8.182;2023-04-07T02:19:58;101314.88;;;5.99;100.00
12969;BME280;6549;53.128;8.182;2023-04-07T02:22:59;101315.91;;;6.07;100.00
12969;BME280;6549;53.128;8.182;2023-04-07T02:25:59;101311.03;;;5.88;100.00
12969;BME280;6549;53.128;8.182;2023-04-07T02:28:59;101315.19;;;5.85;100.00
12969;BME280;6549;53.128;8.182;2023-04-07T02:31:59;101312.44;;;5.73;100.00
12969;BME280;6549;53.128;8.182;2023-04-07T02:34:59;101306.88;;;5.70;100.00
12969;BME280;6549;53.128;8.182;2023-04-07T02:38:00;101311.44;;;5.66;100.00
12969;BME280;6549;53.128;8.182;2023-04-07T02:41:00;101322.22;;;5.74;100.00
12969;BME280;6549;53.128;8.182;2023-04-07T02:44:00;101314.59;;;5.68;100.00
12969;BME280;6549;53.128;8.182;2023-04-07T02:47:00;101317.75;;;5.58;100.00
12969;BME280;6549;53.128;8.182;2023-04-07T02:50:01;101318.13;;;5.68;100.00
12969;BME280;6549;53.128;8.182;2023-04-07T02:53:01;101313.34;;;5.53;100.00
12969;BME280;6549;53.128;8.182;2023-04-07T02:56:02;101314.09;;;5.54;100.00
12969;BME280;6549;53.128;8.182;2023-04-07T02:59:02;101315.63;;;5.75;100.00
12969;BME280;6549;53.128;8.182;2023-04-07T03:02:02;101316.63;;;5.59;100.00
12969;BME280;6549;53.128;8.182;2023-04-07T03:05:02;101323.13;;;5.66;100.00
12969;BME280;6549;53.128;8.182;2023-04-07T03:08:03;101321.03;;;5.51;100.00
12969;BME280;6549;53.128;8.182;2023-04-07T03:11:03;101327.28;;;5.39;100.00
12969;BME280;6549;53.128;8.182;2023-04-07T03:14:04;101323.94;;;5.34;100.00
12969;BME280;6549;53.128;8.182;2023-04-07T03:17:04;101320.28;;;5.18;100.00
12969;BME280;6549;53.128;8.182;2023-04-07T03:20:05;101332.75;;;5.19;100.00
12969;BME280;6549;53.128;8.182;2023-04-07T03:23:05;101321.75;;;5.27;100.00
12969;BME280;6549;53.128;8.182;2023-04-07T03:26:05;101322.13;;;5.26;100.00
12969;BME280;6549;53.128;8.182;2023-04-07T03:29:06;101317.19;;;5.19;100.00
12969;BME280;6549;53.128;8.182;2023-04-07T03:32:06;101320.19;;;5.06;100.00
12969;BME280;6549;53.128;8.182;2023-04-07T03:35:06;101312.84;;;5.06;100.00
12969;BME280;6549;53.128;8.182;2023-04-07T03:38:06;101309.09;;;5.11;100.00
12969;BME280;6549;53.128;8.182;2023-04-07T03:41:07;101310.38;;;5.13;100.00
12969;BME280;6549;53.128;8.182;2023-04-07T03:44:07;101308.34;;;5.22;100.00
12969;BME280;6549;53.128;8.182;2023-04-07T03:47:07;101308.66;;;5.09;100.00
12969;BME280;6549;53.128;8.182;2023-04-07T03:50:08;101309.81;;;5.20;100.00
12969;BME280;6549;53.128;8.182;2023-04-07T03:53:08;101320.00;;;5.11;100.00
12969;BME280;6549;53.128;8.182;2023-04-07T03:56:08;101325.00;;;5.09;100.00
12969;BME280;6549;53.128;8.182;2023-04-07T03:59:09;101330.84;;;4.98;100.00
12969;BME280;6549;53.128;8.182;2023-04-07T04:02:09;101321.00;;;5.06;100.00
12969;BME280;6549;53.128;8.182;2023-04-07T04:05:09;101330.66;;;5.04;100.00
12969;BME280;6549;53.128;8.182;2023-04-07T04:08:10;101320.69;;;5.08;100.00
12969;BME280;6549;53.128;8.182;2023-04-07T04:11:10;101333.63;;;5.11;100.00
12969;BME280;6549;53.128;8.182;2023-04-07T04:14:10;101331.66;;;4.99;100.00
12969;BME280;6549;53.128;8.182;2023-04-07T04:17:11;101340.16;;;4.97;100.00
12969;BME280;6549;53.128;8.182;2023-04-07T04:20:11;101339.09;;;4.90;100.00
12969;BME280;6549;53.128;8.182;2023-04-07T04:23:11;101348.25;;;5.06;100.00
12969;BME280;6549;53.128;8.182;2023-04-07T04:26:12;101341.47;;;4.91;100.00
12969;BME280;6549;53.128;8.182;2023-04-07T04:29:12;101344.66;;;4.93;100.00
12969;BME280;6549;53.128;8.182;2023-04-07T04:32:12;101343.47;;;4.82;100.00
12969;BME280;6549;53.128;8.182;2023-04-07T04:35:12;101342.94;;;4.68;100.00
12969;BME280;6549;53.128;8.182;2023-04-07T04:38:12;101351.19;;;4.80;100.00
12969;BME280;6549;53.128;8.182;2023-04-07T04:41:13;101352.22;;;4.67;100.00
12969;BME280;6549;53.128;8.182;2023-04-07T04:44:13;101359.91;;;4.65;100.00
12969;BME280;6549;53.128;8.182;2023-04-07T04:47:13;101357.75;;;4.59;100.00
12969;BME280;6549;53.128;8.182;2023-04-07T04:50:13;101366.69;;;4.59;100.00
12969;BME280;6549;53.128;8.182;2023-04-07T04:53:13;101361.81;;;4.73;100.00
12969;BME280;6549;53.128;8.182;2023-04-07T04:56:14;101366.53;;;4.64;100.00
12969;BME280;6549;53.128;8.182;2023-04-07T04:59:14;101369.81;;;4.70;100.00
12969;BME280;6549;53.128;8.182;2023-04-07T05:02:14;101370.88;;;4.57;100.00
12969;BME280;6549;53.128;8.182;2023-04-07T05:05:15;101368.16;;;4.57;100.00
12969;BME280;6549;53.128;8.182;2023-04-07T05:08:15;101374.69;;;4.64;100.00
12969;BME280;6549;53.128;8.182;2023-04-07T05:11:15;101378.59;;;4.75;100.00
12969;BME280;6549;53.128;8.182;2023-04-07T05:14:16;101385.47;;;4.81;100.00
12969;BME280;6549;53.128;8.182;2023-04-07T05:17:16;101392.56;;;4.94;100.00
12969;BME280;6549;53.128;8.182;2023-04-07T05:20:16;101386.94;;;5.00;100.00
12969;BME280;6549;53.128;8.182;2023-04-07T05:23:16;101402.91;;;5.01;100.00
12969;BME280;6549;53.128;8.182;2023-04-07T05:26:17;101395.16;;;5.12;100.00
12969;BME280;6549;53.128;8.182;2023-04-07T05:29:17;101397.47;;;5.22;100.00
12969;BME280;6549;53.128;8.182;2023-04-07T05:32:17;101403.00;;;5.13;100.00
12969;BME280;6549;53.128;8.182;2023-04-07T05:35:18;101400.06;;;5.18;100.00
12969;BME280;6549;53.128;8.182;2023-04-07T05:38:18;101401.13;;;5.26;100.00
12969;BME280;6549;53.128;8.182;2023-04-07T05:41:18;101406.50;;;5.67;100.00
12969;BME280;6549;53.128;8.182;2023-04-07T05:44:18;101410.47;;;5.91;100.00
12969;BME280;6549;53.128;8.182;2023-04-07T05:47:19;101406.28;;;6.17;100.00
12969;BME280;6549;53.128;8.182;2023-04-07T05:50:19;101404.38;;;6.42;100.00
12969;BME280;6549;53.128;8.182;2023-04-07T05:53:19;101415.97;;;6.63;100.00
12969;BME280;6549;53.128;8.182;2023-04-07T05:56:19;101414.56;;;6.82;100.00
12969;BME280;6549;53.128;8.182;2023-04-07T05:59:20;101408.78;;;6.83;100.00
12969;BME280;6549;53.128;8.182;2023-04-07T06:02:21;101425.97;;;6.47;100.00
12969;BME280;6549;53.128;8.182;2023-04-07T06:05:21;101436.22;;;6.74;100.00
12969;BME280;6549;53.128;8.182;2023-04-07T06:08:21;101429.97;;;6.62;100.00
12969;BME280;6549;53.128;8.182;2023-04-07T06:11:21;101427.44;;;6.93;100.00
12969;BME280;6549;53.128;8.182;2023-04-07T06:14:22;101448.00;;;7.15;100.00
12969;BME280;6549;53.128;8.182;2023-04-07T06:17:22;101434.13;;;7.08;100.00
12969;BME280;6549;53.128;8.182;2023-04-07T06:20:23;101443.13;;;6.96;100.00
12969;BME280;6549;53.128;8.182;2023-04-07T06:23:23;101441.00;;;6.90;100.00
12969;BME280;6549;53.128;8.182;2023-04-07T06:26:23;101455.69;;;6.85;100.00
12969;BME280;6549;53.128;8.182;2023-04-07T06:29:23;101449.91;;;6.50;100.00
12969;BME280;6549;53.128;8.182;2023-04-07T06:32:24;101456.00;;;6.96;100.00
12969;BME280;6549;53.128;8.182;2023-04-07T06:35:24;101454.09;;;7.36;100.00
12969;BME280;6549;53.128;8.182;2023-04-07T06:38:25;101454.28;;;7.15;100.00
12969;BME280;6549;53.128;8.182;2023-04-07T06:41:26;101466.81;;;7.44;100.00
12969;BME280;6549;53.128;8.182;2023-04-07T06:44:26;101472.88;;;7.78;100.00
12969;BME280;6549;53.128;8.182;2023-04-07T06:47:26;101470.97;;;7.38;100.00
12969;BME280;6549;53.128;8.182;2023-04-07T06:50:27;101481.03;;;8.05;100.00
12969;BME280;6549;53.128;8.182;2023-04-07T06:53:27;101479.53;;;8.36;100.00
12969;BME280;6549;53.128;8.182;2023-04-07T06:56:27;101476.34;;;8.34;100.00
12969;BME280;6549;53.128;8.182;2023-04-07T06:59:27;101483.00;;;8.21;100.00
12969;BME280;6549;53.128;8.182;2023-04-07T07:02:28;101491.72;;;8.10;100.00
12969;BME280;6549;53.128;8.182;2023-04-07T07:05:28;101487.44;;;8.25;100.00
12969;BME280;6549;53.128;8.182;2023-04-07T07:08:28;101487.97;;;8.93;100.00
12969;BME280;6549;53.128;8.182;2023-04-07T07:11:29;101500.78;;;9.05;100.00
12969;BME280;6549;53.128;8.182;2023-04-07T07:14:29;101502.91;;;9.31;100.00
12969;BME280;6549;53.128;8.182;2023-04-07T07:17:30;101506.50;;;9.51;100.00
12969;BME280;6549;53.128;8.182;2023-04-07T07:20:30;101511.13;;;9.46;100.00
12969;BME280;6549;53.128;8.182;2023-04-07T07:23:30;101518.81;;;9.06;100.00
12969;BME280;6549;53.128;8.182;2023-04-07T07:26:30;101518.53;;;9.46;100.00
12969;BME280;6549;53.128;8.182;2023-04-07T07:29:31;101524.22;;;9.37;100.00
12969;BME280;6549;53.128;8.182;2023-04-07T07:32:31;101535.81;;;9.66;100.00
12969;BME280;6549;53.128;8.182;2023-04-07T07:35:31;101532.72;;;9.86;100.00
12969;BME280;6549;53.128;8.182;2023-04-07T07:38:31;101532.22;;;10.19;96.29
12969;BME280;6549;53.128;8.182;2023-04-07T07:41:32;101540.22;;;9.70;96.00
12969;BME280;6549;53.128;8.182;2023-04-07T07:44:32;101542.31;;;9.58;95.59
12969;BME280;6549;53.128;8.182;2023-04-07T07:47:32;101549.41;;;10.16;99.41
12969;BME280;6549;53.128;8.182;2023-04-07T07:50:32;101546.50;;;10.09;92.79
12969;BME280;6549;53.128;8.182;2023-04-07T07:53:32;101540.44;;;10.19;92.90
12969;BME280;6549;53.128;8.182;2023-04-07T07:56:33;101555.88;;;10.47;89.62
12969;BME280;6549;53.128;8.182;2023-04-07T07:59:33;101548.16;;;10.33;90.80
12969;BME280;6549;53.128;8.182;2023-04-07T08:02:33;101537.97;;;10.33;89.65
12969;BME280;6549;53.128;8.182;2023-04-07T08:05:35;101542.72;;;11.05;90.95
12969;BME280;6549;53.128;8.182;2023-04-07T08:08:35;101550.19;;;11.60;88.83
12969;BME280;6549;53.128;8.182;2023-04-07T08:11:35;101554.41;;;11.77;85.50
12969;BME280;6549;53.128;8.182;2023-04-07T08:14:35;101556.72;;;11.49;84.23
12969;BME280;6549;53.128;8.182;2023-04-07T08:17:36;101552.78;;;11.73;85.65
12969;BME280;6549;53.128;8.182;2023-04-07T08:20:36;101548.53;;;11.82;83.20
12969;BME280;6549;53.128;8.182;2023-04-07T08:23:36;101552.91;;;11.57;86.53
12969;BME280;6549;53.128;8.182;2023-04-07T08:26:37;101546.53;;;11.79;81.44
12969;BME280;6549;53.128;8.182;2023-04-07T08:29:37;101554.50;;;11.58;77.97
12969;BME280;6549;53.128;8.182;2023-04-07T08:32:39;101554.97;;;12.27;79.77
12969;BME280;6549;53.128;8.182;2023-04-07T08:35:40;101547.78;;;12.55;79.66
12969;BME280;6549;53.128;8.182;2023-04-07T08:38:40;101555.78;;;12.31;75.68
12969;BME280;6549;53.128;8.182;2023-04-07T08:41:40;101554.72;;;11.72;78.29
12969;BME280;6549;53.128;8.182;2023-04-07T08:44:41;101554.47;;;11.54;78.90
12969;BME280;6549;53.128;8.182;2023-04-07T08:47:42;101550.69;;;12.29;79.92
12969;BME280;6549;53.128;8.182;2023-04-07T08:50:43;101556.19;;;12.29;77.13
12969;BME280;6549;53.128;8.182;2023-04-07T08:53:47;101547.75;;;12.15;79.51
12969;BME280;6549;53.128;8.182;2023-04-07T08:56:49;101558.53;;;12.31;76.95
12969;BME280;6549;53.128;8.182;2023-04-07T08:59:49;101557.72;;;12.27;76.53
12969;BME280;6549;53.128;8.182;2023-04-07T09:02:50;101559.63;;;12.56;79.95
12969;BME280;6549;53.128;8.182;2023-04-07T09:05:51;101574.75;;;13.17;71.74
12969;BME280;6549;53.128;8.182;2023-04-07T09:08:51;101570.06;;;13.28;66.10
12969;BME280;6549;53.128;8.182;2023-04-07T09:11:51;101563.38;;;12.78;61.58
12969;BME280;6549;53.128;8.182;2023-04-07T09:14:52;101566.84;;;12.71;65.18
12969;BME280;6549;53.128;8.182;2023-04-07T09:17:52;101582.97;;;12.69;61.98
12969;BME280;6549;53.128;8.182;2023-04-07T09:20:56;101574.38;;;12.74;62.27
12969;BME280;6549;53.128;8.182;2023-04-07T09:23:57;101584.13;;;12.65;62.52
12969;BME280;6549;53.128;8.182;2023-04-07T09:27:10;101577.19;;;12.81;58.92
12969;BME280;6549;53.128;8.182;2023-04-07T09:30:13;101580.97;;;12.26;57.99
12969;BME280;6549;53.128;8.182;2023-04-07T09:33:14;101588.38;;;12.58;56.98
12969;BME280;6549;53.128;8.182;2023-04-07T09:36:15;101581.25;;;12.54;56.86
12969;BME280;6549;53.128;8.182;2023-04-07T09:39:15;101579.63;;;12.93;54.32
12969;BME280;6549;53.128;8.182;2023-04-07T09:42:15;101581.59;;;12.93;54.17
12969;BME280;6549;53.128;8.182;2023-04-07T09:45:25;101584.66;;;12.81;54.63
12969;BME280;6549;53.128;8.182;2023-04-07T09:48:26;101578.84;;;12.52;54.06
12969;BME280;6549;53.128;8.182;2023-04-07T09:51:26;101583.69;;;13.06;54.04
12969;BME280;6549;53.128;8.182;2023-04-07T09:54:31;101587.69;;;13.67;52.62
12969;BME280;6549;53.128;8.182;2023-04-07T09:57:32;101591.38;;;13.27;50.30
12969;BME280;6549;53.128;8.182;2023-04-07T10:00:36;101580.59;;;13.12;50.59
12969;BME280;6549;53.128;8.182;2023-04-07T10:03:37;101581.91;;;13.28;50.35
12969;BME280;6549;53.128;8.182;2023-04-07T10:06:37;101587.81;;;13.88;49.54
12969;BME280;6549;53.128;8.182;2023-04-07T10:09:38;101586.94;;;13.77;50.00
12969;BME280;6549;53.128;8.182;2023-04-07T10:12:38;101581.66;;;13.51;49.22
12969;BME280;6549;53.128;8.182;2023-04-07T10:15:40;101575.53;;;13.17;49.39
12969;BME280;6549;53.128;8.182;2023-04-07T10:18:40;101580.91;;;13.54;50.00
12969;BME280;6549;53.128;8.182;2023-04-07T10:21:41;101591.56;;;13.59;49.41
12969;BME280;6549;53.128;8.182;2023-04-07T10:24:50;101599.94;;;13.73;49.08
12969;BME280;6549;53.128;8.182;2023-04-07T10:30:51;101604.63;;;13.62;48.63
12969;BME280;6549;53.128;8.182;2023-04-07T10:33:52;101602.34;;;13.17;49.08
12969;BME280;6549;53.128;8.182;2023-04-07T10:37:09;101611.44;;;13.24;47.76
12969;BME280;6549;53.128;8.182;2023-04-07T10:43:36;101611.22;;;13.43;47.13
12969;BME280;6549;53.128;8.182;2023-04-07T10:53:13;101614.88;;;14.48;47.25
12969;BME280;6549;53.128;8.182;2023-04-07T10:56:14;101610.16;;;14.38;46.93
12969;BME280;6549;53.128;8.182;2023-04-07T10:59:14;101612.53;;;14.61;47.26
12969;BME280;6549;53.128;8.182;2023-04-07T11:05:26;101615.97;;;14.26;46.09
12969;BME280;6549;53.128;8.182;2023-04-07T11:08:43;101614.94;;;14.55;45.64
12969;BME280;6549;53.128;8.182;2023-04-07T11:11:43;101616.16;;;14.90;45.24
12969;BME280;6549;53.128;8.182;2023-04-07T11:14:46;101617.34;;;15.42;44.59
12969;BME280;6549;53.128;8.182;2023-04-07T11:18:05;101628.34;;;14.57;43.24
12969;BME280;6549;53.128;8.182;2023-04-07T11:21:06;101618.94;;;15.04;43.52
12969;BME280;6549;53.128;8.182;2023-04-07T11:24:07;101623.25;;;14.83;43.06
12969;BME280;6549;53.128;8.182;2023-04-07T11:27:13;101617.72;;;14.87;43.81
12969;BME280;6549;53.128;8.182;2023-04-07T11:30:14;101632.31;;;14.66;42.16
12969;BME280;6549;53.128;8.182;2023-04-07T11:33:17;101625.19;;;14.65;43.34
12969;BME280;6549;53.128;8.182;2023-04-07T11:36:25;101625.25;;;14.90;42.73
12969;BME280;6549;53.128;8.182;2023-04-07T11:39:25;101628.81;;;15.12;42.71
12969;BME280;6549;53.128;8.182;2023-04-07T11:42:34;101621.31;;;15.30;42.83
12969;BME280;6549;53.128;8.182;2023-04-07T11:45:35;101615.75;;;15.44;43.08
12969;BME280;6549;53.128;8.182;2023-04-07T11:48:36;101618.94;;;15.60;41.75
12969;BME280;6549;53.128;8.182;2023-04-07T11:51:36;101620.47;;;15.79;43.22
12969;BME280;6549;53.128;8.182;2023-04-07T11:54:41;101643.47;;;15.30;41.91
12969;BME280;6549;53.128;8.182;2023-04-07T11:57:41;101635.16;;;15.26;42.33
12969;BME280;6549;53.128;8.182;2023-04-07T12:00:57;101630.81;;;15.29;41.21
12969;BME280;6549;53.128;8.182;2023-04-07T12:03:59;101648.59;;;15.21;42.18
12969;BME280;6549;53.128;8.182;2023-04-07T12:07:09;101641.88;;;15.22;43.28
12969;BME280;6549;53.128;8.182;2023-04-07T12:13:19;101633.16;;;15.09;41.70
12969;BME280;6549;53.128;8.182;2023-04-07T12:16:20;101637.13;;;15.26;41.21
12969;BME280;6549;53.128;8.182;2023-04-07T12:19:21;101635.56;;;15.25;41.60
12969;BME280;6549;53.128;8.182;2023-04-07T12:22:22;101640.69;;;15.55;42.80
12969;BME280;6549;53.128;8.182;2023-04-07T12:25:22;101644.22;;;15.77;41.50
12969;BME280;6549;53.128;8.182;2023-04-07T12:28:23;101637.13;;;15.61;41.98
12969;BME280;6549;53.128;8.182;2023-04-07T12:31:23;101625.25;;;15.47;42.62
12969;BME280;6549;53.128;8.182;2023-04-07T12:34:23;101633.97;;;15.24;43.38
12969;BME280;6549;53.128;8.182;2023-04-07T12:37:23;101643.06;;;15.14;43.82
12969;BME280;6549;53.128;8.182;2023-04-07T12:40:24;101634.38;;;15.12;42.73
12969;BME280;6549;53.128;8.182;2023-04-07T12:43:25;101644.19;;;14.70;44.22
12969;BME280;6549;53.128;8.182;2023-04-07T12:46:25;101648.97;;;14.84;42.78
12969;BME280;6549;53.128;8.182;2023-04-07T12:49:25;101646.63;;;15.14;43.60
12969;BME280;6549;53.128;8.182;2023-04-07T12:52:26;101647.00;;;15.09;42.86
12969;BME280;6549;53.128;8.182;2023-04-07T12:55:26;101642.66;;;15.37;43.26
12969;BME280;6549;53.128;8.182;2023-04-07T12:58:27;101652.16;;;15.18;42.55
12969;BME280;6549;53.128;8.182;2023-04-07T13:01:28;101652.53;;;14.99;42.71
12969;BME280;6549;53.128;8.182;2023-04-07T13:04:28;101642.25;;;15.42;45.76
12969;BME280;6549;53.128;8.182;2023-04-07T13:07:29;101639.88;;;15.22;42.75
12969;BME280;6549;53.128;8.182;2023-04-07T13:10:30;101650.19;;;15.15;42.49
12969;BME280;6549;53.128;8.182;2023-04-07T13:13:30;101645.41;;;14.87;42.85
12969;BME280;6549;53.128;8.182;2023-04-07T13:16:30;101640.69;;;15.30;44.80
12969;BME280;6549;53.128;8.182;2023-04-07T13:19:31;101648.22;;;15.61;41.45
12969;BME280;6549;53.128;8.182;2023-04-07T13:22:31;101648.94;;;15.87;41.19
12969;BME280;6549;53.128;8.182;2023-04-07T13:25:31;101653.72;;;15.83;41.44
12969;BME280;6549;53.128;8.182;2023-04-07T13:28:31;101648.22;;;15.44;42.16
12969;BME280;6549;53.128;8.182;2023-04-07T13:31:32;101647.78;;;15.81;41.78
12969;BME280;6549;53.128;8.182;2023-04-07T13:34:33;101652.56;;;15.31;41.23
12969;BME280;6549;53.128;8.182;2023-04-07T13:37:33;101646.22;;;15.37;40.74
12969;BME280;6549;53.128;8.182;2023-04-07T13:40:33;101643.06;;;15.28;40.96
12969;BME280;6549;53.128;8.182;2023-04-07T13:43:34;101646.22;;;15.41;41.28
12969;BME280;6549;53.128;8.182;2023-04-07T13:46:34;101652.97;;;15.43;40.88
12969;BME280;6549;53.128;8.182;2023-04-07T13:49:35;101643.09;;;15.53;40.60
12969;BME280;6549;53.128;8.182;2023-04-07T13:52:35;101640.28;;;15.63;41.28
12969;BME280;6549;53.128;8.182;2023-04-07T13:55:36;101633.16;;;15.62;40.29
12969;BME280;6549;53.128;8.182;2023-04-07T13:58:36;101646.63;;;15.25;41.71
12969;BME280;6549;53.128;8.182;2023-04-07T14:01:37;101637.53;;;15.28;41.31
12969;BME280;6549;53.128;8.182;2023-04-07T14:04:38;101645.03;;;15.49;41.27
12969;BME280;6549;53.128;8.182;2023-04-07T14:07:38;101644.25;;;15.69;41.94
12969;BME280;6549;53.128;8.182;2023-04-07T14:10:38;101644.66;;;15.57;40.35
12969;BME280;6549;53.128;8.182;2023-04-07T14:13:39;101639.50;;;15.24;41.61
12969;BME280;6549;53.128;8.182;2023-04-07T14:16:39;101650.97;;;15.47;40.88
12969;BME280;6549;53.128;8.182;2023-04-07T14:19:40;101639.91;;;15.26;41.04
12969;BME280;6549;53.128;8.182;2023-04-07T14:22:41;101641.88;;;15.43;40.88
12969;BME280;6549;53.128;8.182;2023-04-07T14:25:41;101636.72;;;15.27;41.72
12969;BME280;6549;53.128;8.182;2023-04-07T14:28:41;101642.66;;;15.40;41.67
12969;BME280;6549;53.128;8.182;2023-04-07T14:31:41;101633.19;;;15.52;40.80
12969;BME280;6549;53.128;8.182;2023-04-07T14:34:44;101647.00;;;15.38;41.46
12969;BME280;6549;53.128;8.182;2023-04-07T14:37:44;101647.84;;;15.52;41.17
12969;BME280;6549;53.128;8.182;2023-04-07T14:40:44;101652.97;;;15.64;41.93
12969;BME280;6549;53.128;8.182;2023-04-07T14:43:45;101664.47;;;15.52;40.25
12969;BME280;6549;53.128;8.182;2023-04-07T14:46:47;101661.66;;;15.27;40.41
12969;BME280;6549;53.128;8.182;2023-04-07T14:49:47;101658.91;;;15.13;40.59
12969;BME280;6549;53.128;8.182;2023-04-07T14:52:47;101656.09;;;14.96;40.93
12969;BME280;6549;53.128;8.182;2023-04-07T14:55:47;101654.91;;;14.97;41.62
12969;BME280;6549;53.128;8.182;2023-04-07T14:58:47;101663.63;;;14.95;41.26
12969;BME280;6549;53.128;8.182;2023-04-07T15:01:48;101664.03;;;15.11;41.17
12969;BME280;6549;53.128;8.182;2023-04-07T15:04:48;101665.59;;;15.02;42.99
12969;BME280;6549;53.128;8.182;2023-04-07T15:07:48;101667.19;;;15.03;42.00
12969;BME280;6549;53.128;8.182;2023-04-07T15:10:51;101660.06;;;14.95;41.88
12969;BME280;6549;53.128;8.182;2023-04-07T15:13:52;101677.44;;;14.84;41.49
12969;BME280;6549;53.128;8.182;2023-04-07T15:16:52;101664.72;;;14.62;40.89
12969;BME280;6549;53.128;8.182;2023-04-07T15:19:52;101676.19;;;14.68;41.85
12969;BME280;6549;53.128;8.182;2023-04-07T15:22:52;101665.50;;;14.59;43.01
12969;BME280;6549;53.128;8.182;2023-04-07T15:25:53;101676.94;;;14.54;43.41
12969;BME280;6549;53.128;8.182;2023-04-07T15:28:55;101669.44;;;14.51;42.99
12969;BME280;6549;53.128;8.182;2023-04-07T15:31:55;101679.66;;;14.44;42.74
12969;BME280;6549;53.128;8.182;2023-04-07T15:34:55;101688.19;;;14.10;43.47
12969;BME280;6549;53.128;8.182;2023-04-07T15:37:55;101679.94;;;14.21;44.04
12969;BME280;6549;53.128;8.182;2023-04-07T15:40:56;101683.84;;;14.13;43.86
12969;BME280;6549;53.128;8.182;2023-04-07T15:43:57;101695.41;;;14.29;42.78
12969;BME280;6549;53.128;8.182;2023-04-07T15:46:58;101689.44;;;14.27;43.69
12969;BME280;6549;53.128;8.182;2023-04-07T15:49:58;101703.25;;;14.23;43.59
12969;BME280;6549;53.128;8.182;2023-04-07T15:52:58;101697.56;;;13.99;42.52
12969;BME280;6549;53.128;8.182;2023-04-07T15:55:58;101696.09;;;14.15;43.31
12969;BME280;6549;53.128;8.182;2023-04-07T15:58:59;101697.72;;;14.20;42.76
12969;BME280;6549;53.128;8.182;2023-04-07T16:01:59;101711.50;;;14.16;43.36
12969;BME280;6549;53.128;8.182;2023-04-07T16:05:00;101709.13;;;14.15;42.55
12969;BME280;6549;53.128;8.182;2023-04-07T16:08:00;101705.44;;;13.89;43.20
12969;BME280;6549;53.128;8.182;2023-04-07T16:11:00;101715.59;;;13.75;42.92
12969;BME280;6549;53.128;8.182;2023-04-07T16:14:00;101711.56;;;13.65;42.84
12969;BME280;6549;53.128;8.182;2023-04-07T16:17:01;101716.78;;;13.77;43.10
12969;BME280;6549;53.128;8.182;2023-04-07T16:20:01;101713.09;;;13.59;43.35
12969;BME280;6549;53.128;8.182;2023-04-07T16:23:02;101716.59;;;13.53;42.95
12969;BME280;6549;53.128;8.182;2023-04-07T16:26:02;101720.13;;;13.49;42.80